sensor_id;sensor_type;location;lat;lon;timestamp;temperature;humidity
58638;DHT22;54976;51.510;7.522;2023-07-13T00:01:54;18.30;72.70
58638;DHT22;54976;51.510;7.522;2023-07-13T00:04:55;18.30;72.90
58638;DHT22;54976;51.510;7.522;2023-07-13T00:07:56;18.30;72.90
58638;DHT22;54976;51.510;7.522;2023-07-13T00:10:56;18.20;72.10
58638;DHT22;54976;51.510;7.522;2023-07-13T00:13:57;18.20;72.30
58638;DHT22;54976;51.510;7.522;2023-07-13T00:16:57;18.20;72.50
58638;DHT22;54976;51.510;7.522;2023-07-13T00:20:00;18.10;72.40
58638;DHT22;54976;51.510;7.522;2023-07-13T00:23:01;18.10;72.10
58638;DHT22;54976;51.510;7.522;2023-07-13T00:26:03;18.10;72.30
58638;DHT22;54976;51.510;7.522;2023-07-13T00:29:05;18.00;72.10
58638;DHT22;54976;51.510;7.522;2023-07-13T00:32:09;18.00;72.00
58638;DHT22;54976;51.510;7.522;2023-07-13T00:35:10;18.00;72.20
58638;DHT22;54976;51.510;7.522;2023-07-13T00:38:11;17.90;72.30
58638;DHT22;54976;51.510;7.522;2023-07-13T00:41:12;17.90;72.00
58638;DHT22;54976;51.510;7.522;2023-07-13T00:44:18;17.80;72.30
58638;DHT22;54976;51.510;7.522;2023-07-13T00:47:19;17.90;72.20
58638;DHT22;54976;51.510;7.522;2023-07-13T00:50:21;17.70;72.50
58638;DHT22;54976;51.510;7.522;2023-07-13T00:53:22;17.70;73.50
58638;DHT22;54976;51.510;7.522;2023-07-13T00:56:25;17.60;72.60
58638;DHT22;54976;51.510;7.522;2023-07-13T00:59:27;17.60;73.90
58638;DHT22;54976;51.510;7.522;2023-07-13T01:02:28;17.50;73.40
58638;DHT22;54976;51.510;7.522;2023-07-13T01:05:29;17.40;74.20
58638;DHT22;54976;51.510;7.522;2023-07-13T01:08:29;17.30;74.50
58638;DHT22;54976;51.510;7.522;2023-07-13T01:11:30;17.30;74.00
58638;DHT22;54976;51.510;7.522;2023-07-13T01:14:31;17.20;74.10
58638;DHT22;54976;51.510;7.522;2023-07-13T01:17:33;17.20;74.30
58638;DHT22;54976;51.510;7.522;2023-07-13T01:20:34;17.10;74.80
58638;DHT22;54976;51.510;7.522;2023-07-13T01:23:36;17.00;74.80
58638;DHT22;54976;51.510;7.522;2023-07-13T01:26:37;17.00;75.00
58638;DHT22;54976;51.510;7.522;2023-07-13T01:29:39;17.00;74.60
58638;DHT22;54976;51.510;7.522;2023-07-13T01:32:42;16.90;75.00
58638;DHT22;54976;51.510;7.522;2023-07-13T01:35:44;16.90;75.50
58638;DHT22;54976;51.510;7.522;2023-07-13T01:38:45;16.90;74.90
58638;DHT22;54976;51.510;7.522;2023-07-13T01:41:45;16.90;74.70
58638;DHT22;54976;51.510;7.522;2023-07-13T01:44:46;16.90;76.10
58638;DHT22;54976;51.510;7.522;2023-07-13T01:47:46;16.80;75.70
58638;DHT22;54976;51.510;7.522;2023-07-13T01:50:47;16.80;75.70
58638;DHT22;54976;51.510;7.522;2023-07-13T01:53:48;16.70;76.00
58638;DHT22;54976;51.510;7.522;2023-07-13T01:56:50;16.70;76.30
58638;DHT22;54976;51.510;7.522;2023-07-13T01:59:50;16.80;76.50
58638;DHT22;54976;51.510;7.522;2023-07-13T02:02:51;16.70;76.60
58638;DHT22;54976;51.510;7.522;2023-07-13T02:05:52;16.70;76.40
58638;DHT22;54976;51.510;7.522;2023-07-13T02:08:53;16.70;77.00
58638;DHT22;54976;51.510;7.522;2023-07-13T02:11:53;16.70;77.20
58638;DHT22;54976;51.510;7.522;2023-07-13T02:14:54;16.70;77.30
58638;DHT22;54976;51.510;7.522;2023-07-13T02:17:55;16.70;77.30
58638;DHT22;54976;51.510;7.522;2023-07-13T02:20:57;16.60;77.50
58638;DHT22;54976;51.510;7.522;2023-07-13T02:23:57;16.50;77.80
58638;DHT22;54976;51.510;7.522;2023-07-13T02:26:58;16.50;78.40
58638;DHT22;54976;51.510;7.522;2023-07-13T02:29:59;16.50;78.40
58638;DHT22;54976;51.510;7.522;2023-07-13T02:32:59;16.40;78.50
58638;DHT22;54976;51.510;7.522;2023-07-13T02:36:00;16.40;78.70
58638;DHT22;54976;51.510;7.522;2023-07-13T02:39:03;16.30;79.30
58638;DHT22;54976;51.510;7.522;2023-07-13T02:42:04;16.40;79.80
58638;DHT22;54976;51.510;7.522;2023-07-13T02:45:06;16.30;79.80
58638;DHT22;54976;51.510;7.522;2023-07-13T02:48:07;16.20;79.70
58638;DHT22;54976;51.510;7.522;2023-07-13T02:51:07;16.20;79.70
58638;DHT22;54976;51.510;7.522;2023-07-13T02:54:09;16.20;79.90
58638;DHT22;54976;51.510;7.522;2023-07-13T02:57:10;16.20;79.30
58638;DHT22;54976;51.510;7.522;2023-07-13T03:00:11;16.30;79.40
58638;DHT22;54976;51.510;7.522;2023-07-13T03:03:13;16.30;78.90
58638;DHT22;54976;51.510;7.522;2023-07-13T03:06:14;16.30;79.00
58638;DHT22;54976;51.510;7.522;2023-07-13T03:09:15;16.30;79.10
58638;DHT22;54976;51.510;7.522;2023-07-13T03:12:16;16.40;79.90
58638;DHT22;54976;51.510;7.522;2023-07-13T03:15:16;16.30;79.80
58638;DHT22;54976;51.510;7.522;2023-07-13T03:18:17;16.30;80.00
58638;DHT22;54976;51.510;7.522;2023-07-13T03:21:17;16.30;80.30
58638;DHT22;54976;51.510;7.522;2023-07-13T03:24:18;16.30;80.80
58638;DHT22;54976;51.510;7.522;2023-07-13T03:27:19;16.20;80.30
58638;DHT22;54976;51.510;7.522;2023-07-13T03:30:19;16.20;80.20
58638;DHT22;54976;51.510;7.522;2023-07-13T03:33:20;16.20;80.10
58638;DHT22;54976;51.510;7.522;2023-07-13T03:36:23;16.20;81.10
58638;DHT22;54976;51.510;7.522;2023-07-13T03:39:25;16.20;80.60
58638;DHT22;54976;51.510;7.522;2023-07-13T03:42:25;16.20;80.50
58638;DHT22;54976;51.510;7.522;2023-07-13T03:45:26;16.20;80.60
58638;DHT22;54976;51.510;7.522;2023-07-13T03:48:26;16.20;80.90
58638;DHT22;54976;51.510;7.522;2023-07-13T03:51:27;16.30;81.00
58638;DHT22;54976;51.510;7.522;2023-07-13T03:54:27;16.30;81.10
58638;DHT22;54976;51.510;7.522;2023-07-13T03:57:28;16.30;81.70
58638;DHT22;54976;51.510;7.522;2023-07-13T04:00:28;16.20;81.40
58638;DHT22;54976;51.510;7.522;2023-07-13T04:03:29;16.30;81.30
58638;DHT22;54976;51.510;7.522;2023-07-13T04:06:33;16.40;82.00
58638;DHT22;54976;51.510;7.522;2023-07-13T04:09:34;16.30;82.40
58638;DHT22;54976;51.510;7.522;2023-07-13T04:12:35;16.30;82.00
58638;DHT22;54976;51.510;7.522;2023-07-13T04:15:35;16.30;82.10
58638;DHT22;54976;51.510;7.522;2023-07-13T04:18:36;16.20;82.80
58638;DHT22;54976;51.510;7.522;2023-07-13T04:21:37;16.30;83.10
58638;DHT22;54976;51.510;7.522;2023-07-13T04:24:37;16.30;83.20
58638;DHT22;54976;51.510;7.522;2023-07-13T04:27:38;16.30;83.20
58638;DHT22;54976;51.510;7.522;2023-07-13T04:30:39;16.30;83.40
58638;DHT22;54976;51.510;7.522;2023-07-13T04:33:40;16.30;83.80
58638;DHT22;54976;51.510;7.522;2023-07-13T04:36:41;16.30;84.00
58638;DHT22;54976;51.510;7.522;2023-07-13T04:39:41;16.40;84.10
58638;DHT22;54976;51.510;7.522;2023-07-13T04:42:42;16.40;84.30
58638;DHT22;54976;51.510;7.522;2023-07-13T04:45:43;16.40;84.40
58638;DHT22;54976;51.510;7.522;2023-07-13T04:48:43;16.40;84.10
58638;DHT22;54976;51.510;7.522;2023-07-13T04:51:44;16.40;84.40
58638;DHT22;54976;51.510;7.522;2023-07-13T04:54:44;16.50;84.90
58638;DHT22;54976;51.510;7.522;2023-07-13T04:57:46;16.50;85.30
58638;DHT22;54976;51.510;7.522;2023-07-13T05:00:47;16.50;85.10
58638;DHT22;54976;51.510;7.522;2023-07-13T05:03:47;16.50;84.80
58638;DHT22;54976;51.510;7.522;2023-07-13T05:06:48;16.60;85.50
58638;DHT22;54976;51.510;7.522;2023-07-13T05:09:48;16.60;85.80
58638;DHT22;54976;51.510;7.522;2023-07-13T05:12:49;16.70;85.50
58638;DHT22;54976;51.510;7.522;2023-07-13T05:16:01;16.70;85.70
58638;DHT22;54976;51.510;7.522;2023-07-13T05:19:02;16.80;85.90
58638;DHT22;54976;51.510;7.522;2023-07-13T05:22:03;16.80;85.80
58638;DHT22;54976;51.510;7.522;2023-07-13T05:25:06;16.90;86.10
58638;DHT22;54976;51.510;7.522;2023-07-13T05:28:06;17.00;86.10
58638;DHT22;54976;51.510;7.522;2023-07-13T05:31:08;17.00;85.80
58638;DHT22;54976;51.510;7.522;2023-07-13T05:34:09;17.10;85.90
58638;DHT22;54976;51.510;7.522;2023-07-13T05:37:10;17.20;86.70
58638;DHT22;54976;51.510;7.522;2023-07-13T05:40:11;17.20;85.90
58638;DHT22;54976;51.510;7.522;2023-07-13T05:43:12;17.50;85.00
58638;DHT22;54976;51.510;7.522;2023-07-13T05:46:13;17.60;84.40
58638;DHT22;54976;51.510;7.522;2023-07-13T05:49:13;17.80;83.40
58638;DHT22;54976;51.510;7.522;2023-07-13T05:52:14;17.90;83.00
58638;DHT22;54976;51.510;7.522;2023-07-13T05:55:15;18.10;83.00
58638;DHT22;54976;51.510;7.522;2023-07-13T05:58:17;18.40;81.80
58638;DHT22;54976;51.510;7.522;2023-07-13T06:01:17;18.60;81.80
58638;DHT22;54976;51.510;7.522;2023-07-13T06:04:20;18.90;79.00
58638;DHT22;54976;51.510;7.522;2023-07-13T06:07:21;18.90;79.10
58638;DHT22;54976;51.510;7.522;2023-07-13T06:10:21;18.90;79.10
58638;DHT22;54976;51.510;7.522;2023-07-13T06:13:22;18.80;79.80
58638;DHT22;54976;51.510;7.522;2023-07-13T06:16:22;18.80;79.90
58638;DHT22;54976;51.510;7.522;2023-07-13T06:19:23;18.90;80.70
58638;DHT22;54976;51.510;7.522;2023-07-13T06:22:24;18.70;80.60
58638;DHT22;54976;51.510;7.522;2023-07-13T06:25:26;18.80;80.80
58638;DHT22;54976;51.510;7.522;2023-07-13T06:28:28;18.90;80.40
58638;DHT22;54976;51.510;7.522;2023-07-13T06:31:29;18.80;80.00
58638;DHT22;54976;51.510;7.522;2023-07-13T06:34:29;18.80;80.70
58638;DHT22;54976;51.510;7.522;2023-07-13T06:37:30;18.80;80.90
58638;DHT22;54976;51.510;7.522;2023-07-13T06:40:30;18.80;80.50
58638;DHT22;54976;51.510;7.522;2023-07-13T06:43:31;18.70;80.40
58638;DHT22;54976;51.510;7.522;2023-07-13T06:46:32;18.70;80.90
58638;DHT22;54976;51.510;7.522;2023-07-13T06:49:32;18.70;81.80
58638;DHT22;54976;51.510;7.522;2023-07-13T06:52:33;18.80;82.10
58638;DHT22;54976;51.510;7.522;2023-07-13T06:55:34;18.80;81.30
58638;DHT22;54976;51.510;7.522;2023-07-13T06:58:34;18.80;82.00
58638;DHT22;54976;51.510;7.522;2023-07-13T07:01:35;18.80;82.30
58638;DHT22;54976;51.510;7.522;2023-07-13T07:04:36;19.00;82.00
58638;DHT22;54976;51.510;7.522;2023-07-13T07:07:36;19.20;80.90
58638;DHT22;54976;51.510;7.522;2023-07-13T07:10:37;19.20;79.60
58638;DHT22;54976;51.510;7.522;2023-07-13T07:13:38;19.20;79.60
58638;DHT22;54976;51.510;7.522;2023-07-13T07:16:39;19.40;78.90
58638;DHT22;54976;51.510;7.522;2023-07-13T07:19:40;19.40;79.30
58638;DHT22;54976;51.510;7.522;2023-07-13T07:22:41;19.30;79.00
58638;DHT22;54976;51.510;7.522;2023-07-13T07:25:43;19.30;79.50
58638;DHT22;54976;51.510;7.522;2023-07-13T07:28:44;19.50;79.40
58638;DHT22;54976;51.510;7.522;2023-07-13T07:31:44;20.10;78.80
58638;DHT22;54976;51.510;7.522;2023-07-13T07:34:45;20.00;76.10
58638;DHT22;54976;51.510;7.522;2023-07-13T07:37:46;20.00;76.10
58638;DHT22;54976;51.510;7.522;2023-07-13T07:40:47;20.00;76.10
58638;DHT22;54976;51.510;7.522;2023-07-13T07:43:47;20.30;76.20
58638;DHT22;54976;51.510;7.522;2023-07-13T07:46:48;20.60;75.80
58638;DHT22;54976;51.510;7.522;2023-07-13T07:49:49;20.70;74.20
58638;DHT22;54976;51.510;7.522;2023-07-13T07:52:50;21.00;73.00
58638;DHT22;54976;51.510;7.522;2023-07-13T07:55:51;21.50;70.40
58638;DHT22;54976;51.510;7.522;2023-07-13T07:58:52;21.60;69.50
58638;DHT22;54976;51.510;7.522;2023-07-13T08:01:52;22.20;68.80
58638;DHT22;54976;51.510;7.522;2023-07-13T08:04:53;22.90;65.20
58638;DHT22;54976;51.510;7.522;2023-07-13T08:07:55;23.30;62.80
58638;DHT22;54976;51.510;7.522;2023-07-13T08:10:55;23.20;60.80
58638;DHT22;54976;51.510;7.522;2023-07-13T08:13:56;22.90;60.60
58638;DHT22;54976;51.510;7.522;2023-07-13T08:16:56;22.60;61.30
58638;DHT22;54976;51.510;7.522;2023-07-13T08:19:57;22.40;63.90
58638;DHT22;54976;51.510;7.522;2023-07-13T08:22:57;22.50;62.30
58638;DHT22;54976;51.510;7.522;2023-07-13T08:25:58;22.30;62.20
58638;DHT22;54976;51.510;7.522;2023-07-13T08:28:59;22.20;62.30
58638;DHT22;54976;51.510;7.522;2023-07-13T08:31:59;21.70;62.60
58638;DHT22;54976;51.510;7.522;2023-07-13T08:35:00;21.40;64.90
58638;DHT22;54976;51.510;7.522;2023-07-13T08:38:01;21.30;65.60
58638;DHT22;54976;51.510;7.522;2023-07-13T08:41:17;21.30;65.90
58638;DHT22;54976;51.510;7.522;2023-07-13T08:47:54;22.20;65.30
58638;DHT22;54976;51.510;7.522;2023-07-13T08:51:09;22.50;64.00
58638;DHT22;54976;51.510;7.522;2023-07-13T08:54:21;22.90;62.90
58638;DHT22;54976;51.510;7.522;2023-07-13T08:57:27;23.50;61.10
58638;DHT22;54976;51.510;7.522;2023-07-13T09:00:39;24.30;59.10
58638;DHT22;54976;51.510;7.522;2023-07-13T09:03:50;24.80;56.90
58638;DHT22;54976;51.510;7.522;2023-07-13T09:13:14;25.20;55.20
58638;DHT22;54976;51.510;7.522;2023-07-13T09:16:19;25.20;55.10
58638;DHT22;54976;51.510;7.522;2023-07-13T09:19:25;24.80;54.70
58638;DHT22;54976;51.510;7.522;2023-07-13T09:22:28;24.70;55.50
58638;DHT22;54976;51.510;7.522;2023-07-13T09:25:37;24.40;56.60
58638;DHT22;54976;51.510;7.522;2023-07-13T09:28:50;24.60;55.70
58638;DHT22;54976;51.510;7.522;2023-07-13T09:31:55;24.20;55.50
58638;DHT22;54976;51.510;7.522;2023-07-13T09:34:58;23.80;56.00
58638;DHT22;54976;51.510;7.522;2023-07-13T09:38:13;23.80;57.50
58638;DHT22;54976;51.510;7.522;2023-07-13T09:41:26;24.20;57.60
58638;DHT22;54976;51.510;7.522;2023-07-13T09:47:38;25.10;55.00
58638;DHT22;54976;51.510;7.522;2023-07-13T09:50:39;25.20;54.40
58638;DHT22;54976;51.510;7.522;2023-07-13T09:53:42;25.80;54.60
58638;DHT22;54976;51.510;7.522;2023-07-13T09:56:43;26.40;51.70
58638;DHT22;54976;51.510;7.522;2023-07-13T09:59:48;26.40;52.50
58638;DHT22;54976;51.510;7.522;2023-07-13T10:03:03;25.80;51.70
58638;DHT22;54976;51.510;7.522;2023-07-13T10:06:13;25.20;52.10
58638;DHT22;54976;51.510;7.522;2023-07-13T10:09:17;25.00;52.60
58638;DHT22;54976;51.510;7.522;2023-07-13T10:12:19;25.10;52.40
58638;DHT22;54976;51.510;7.522;2023-07-13T10:15:22;25.30;51.90
58638;DHT22;54976;51.510;7.522;2023-07-13T10:18:24;25.20;52.10
58638;DHT22;54976;51.510;7.522;2023-07-13T10:21:33;24.90;52.90
58638;DHT22;54976;51.510;7.522;2023-07-13T10:24:37;24.50;54.30
58638;DHT22;54976;51.510;7.522;2023-07-13T10:27:38;24.30;53.40
58638;DHT22;54976;51.510;7.522;2023-07-13T10:30:42;23.90;54.10
58638;DHT22;54976;51.510;7.522;2023-07-13T10:33:44;23.50;54.70
58638;DHT22;54976;51.510;7.522;2023-07-13T10:36:46;23.50;54.20
58638;DHT22;54976;51.510;7.522;2023-07-13T10:39:48;23.50;55.00
58638;DHT22;54976;51.510;7.522;2023-07-13T10:42:51;23.90;55.00
58638;DHT22;54976;51.510;7.522;2023-07-13T10:45:55;24.10;55.30
58638;DHT22;54976;51.510;7.522;2023-07-13T10:49:04;24.40;55.00
58638;DHT22;54976;51.510;7.522;2023-07-13T10:52:06;24.40;53.10
58638;DHT22;54976;51.510;7.522;2023-07-13T10:58:44;24.20;54.10
58638;DHT22;54976;51.510;7.522;2023-07-13T11:04:57;24.20;54.00
58638;DHT22;54976;51.510;7.522;2023-07-13T11:11:38;24.00;55.50
58638;DHT22;54976;51.510;7.522;2023-07-13T11:17:50;24.10;55.20
58638;DHT22;54976;51.510;7.522;2023-07-13T11:20:51;24.30;55.00
58638;DHT22;54976;51.510;7.522;2023-07-13T11:27:21;24.30;54.90
58638;DHT22;54976;51.510;7.522;2023-07-13T11:36:44;24.00;54.60
58638;DHT22;54976;51.510;7.522;2023-07-13T11:39:46;24.00;54.90
58638;DHT22;54976;51.510;7.522;2023-07-13T11:42:48;23.90;54.50
58638;DHT22;54976;51.510;7.522;2023-07-13T11:45:50;23.70;54.60
58638;DHT22;54976;51.510;7.522;2023-07-13T11:48:52;23.60;54.60
58638;DHT22;54976;51.510;7.522;2023-07-13T11:51:53;23.70;54.00
58638;DHT22;54976;51.510;7.522;2023-07-13T11:54:55;23.90;54.60
58638;DHT22;54976;51.510;7.522;2023-07-13T11:58:01;23.90;54.40
58638;DHT22;54976;51.510;7.522;2023-07-13T12:01:03;23.90;53.20
58638;DHT22;54976;51.510;7.522;2023-07-13T12:04:08;23.90;53.90
58638;DHT22;54976;51.510;7.522;2023-07-13T12:07:17;23.80;54.40
58638;DHT22;54976;51.510;7.522;2023-07-13T12:10:22;24.10;53.70
58638;DHT22;54976;51.510;7.522;2023-07-13T12:13:27;24.60;52.30
58638;DHT22;54976;51.510;7.522;2023-07-13T12:16:31;25.00;51.20
58638;DHT22;54976;51.510;7.522;2023-07-13T12:19:35;25.60;50.40
58638;DHT22;54976;51.510;7.522;2023-07-13T12:22:35;26.10;49.40
58638;DHT22;54976;51.510;7.522;2023-07-13T12:25:36;26.40;48.30
58638;DHT22;54976;51.510;7.522;2023-07-13T12:28:43;26.80;48.20
58638;DHT22;54976;51.510;7.522;2023-07-13T12:31:47;27.20;46.50
58638;DHT22;54976;51.510;7.522;2023-07-13T12:34:56;27.60;45.90
58638;DHT22;54976;51.510;7.522;2023-07-13T12:37:57;27.80;44.10
58638;DHT22;54976;51.510;7.522;2023-07-13T12:41:01;27.60;44.30
58638;DHT22;54976;51.510;7.522;2023-07-13T12:44:08;27.20;44.00
58638;DHT22;54976;51.510;7.522;2023-07-13T12:47:13;27.50;44.40
58638;DHT22;54976;51.510;7.522;2023-07-13T12:50:17;27.90;43.50
58638;DHT22;54976;51.510;7.522;2023-07-13T12:53:21;28.00;43.30
58638;DHT22;54976;51.510;7.522;2023-07-13T12:56:23;28.20;42.90
58638;DHT22;54976;51.510;7.522;2023-07-13T12:59:30;27.90;42.50
58638;DHT22;54976;51.510;7.522;2023-07-13T13:02:34;27.80;41.90
58638;DHT22;54976;51.510;7.522;2023-07-13T13:05:35;27.30;43.10
58638;DHT22;54976;51.510;7.522;2023-07-13T13:08:38;26.80;43.00
58638;DHT22;54976;51.510;7.522;2023-07-13T13:11:41;26.80;44.40
58638;DHT22;54976;51.510;7.522;2023-07-13T13:14:42;27.30;43.00
58638;DHT22;54976;51.510;7.522;2023-07-13T13:17:43;27.60;43.10
58638;DHT22;54976;51.510;7.522;2023-07-13T13:20:44;27.70;43.00
58638;DHT22;54976;51.510;7.522;2023-07-13T13:23:45;27.40;43.40
58638;DHT22;54976;51.510;7.522;2023-07-13T13:26:46;27.50;43.20
58638;DHT22;54976;51.510;7.522;2023-07-13T13:29:50;27.30;43.60
58638;DHT22;54976;51.510;7.522;2023-07-13T13:32:54;27.30;43.90
58638;DHT22;54976;51.510;7.522;2023-07-13T13:35:55;27.50;43.90
58638;DHT22;54976;51.510;7.522;2023-07-13T13:38:55;27.00;43.00
58638;DHT22;54976;51.510;7.522;2023-07-13T13:41:56;26.50;43.90
58638;DHT22;54976;51.510;7.522;2023-07-13T13:44:56;26.50;44.10
58638;DHT22;54976;51.510;7.522;2023-07-13T13:47:57;26.50;44.20
58638;DHT22;54976;51.510;7.522;2023-07-13T13:50:59;26.00;45.80
58638;DHT22;54976;51.510;7.522;2023-07-13T13:54:00;25.20;48.60
58638;DHT22;54976;51.510;7.522;2023-07-13T13:57:02;24.00;50.80
58638;DHT22;54976;51.510;7.522;2023-07-13T14:00:03;23.10;52.70
58638;DHT22;54976;51.510;7.522;2023-07-13T14:03:04;22.20;56.10
58638;DHT22;54976;51.510;7.522;2023-07-13T14:06:08;21.50;60.70
58638;DHT22;54976;51.510;7.522;2023-07-13T14:09:13;21.10;63.70
58638;DHT22;54976;51.510;7.522;2023-07-13T14:12:14;20.70;62.10
58638;DHT22;54976;51.510;7.522;2023-07-13T14:15:19;20.40;63.80
58638;DHT22;54976;51.510;7.522;2023-07-13T14:18:20;20.40;65.30
58638;DHT22;54976;51.510;7.522;2023-07-13T14:21:21;20.40;66.10
58638;DHT22;54976;51.510;7.522;2023-07-13T14:24:22;20.60;67.60
58638;DHT22;54976;51.510;7.522;2023-07-13T14:27:23;21.10;67.50
58638;DHT22;54976;51.510;7.522;2023-07-13T14:30:25;21.10;69.50
58638;DHT22;54976;51.510;7.522;2023-07-13T14:33:26;21.30;69.00
58638;DHT22;54976;51.510;7.522;2023-07-13T14:36:28;21.30;67.50
58638;DHT22;54976;51.510;7.522;2023-07-13T14:39:29;21.40;68.80
58638;DHT22;54976;51.510;7.522;2023-07-13T14:42:30;21.50;68.00
58638;DHT22;54976;51.510;7.522;2023-07-13T14:45:31;21.90;64.80
58638;DHT22;54976;51.510;7.522;2023-07-13T14:48:32;22.20;61.80
58638;DHT22;54976;51.510;7.522;2023-07-13T14:51:33;22.70;60.40
58638;DHT22;54976;51.510;7.522;2023-07-13T14:54:34;22.80;60.10
58638;DHT22;54976;51.510;7.522;2023-07-13T14:57:34;22.60;59.10
58638;DHT22;54976;51.510;7.522;2023-07-13T15:00:35;22.20;61.90
58638;DHT22;54976;51.510;7.522;2023-07-13T15:03:36;21.90;62.20
58638;DHT22;54976;51.510;7.522;2023-07-13T15:06:57;21.70;64.10
58638;DHT22;54976;51.510;7.522;2023-07-13T15:09:58;21.50;70.00
58638;DHT22;54976;51.510;7.522;2023-07-13T15:13:16;21.00;75.50
58638;DHT22;54976;51.510;7.522;2023-07-13T15:16:22;20.50;82.00
58638;DHT22;54976;51.510;7.522;2023-07-13T15:19:24;20.20;86.50
58638;DHT22;54976;51.510;7.522;2023-07-13T15:22:25;19.90;90.00
58638;DHT22;54976;51.510;7.522;2023-07-13T15:25:29;19.70;90.40
58638;DHT22;54976;51.510;7.522;2023-07-13T15:28:30;19.50;93.50
58638;DHT22;54976;51.510;7.522;2023-07-13T15:31:32;19.20;94.00
58638;DHT22;54976;51.510;7.522;2023-07-13T15:34:33;19.10;95.50
58638;DHT22;54976;51.510;7.522;2023-07-13T15:37:33;18.90;95.70
58638;DHT22;54976;51.510;7.522;2023-07-13T15:40:35;18.90;95.50
58638;DHT22;54976;51.510;7.522;2023-07-13T15:43:35;19.40;94.50
58638;DHT22;54976;51.510;7.522;2023-07-13T15:46:36;20.20;94.90
58638;DHT22;54976;51.510;7.522;2023-07-13T15:49:38;20.80;94.10
58638;DHT22;54976;51.510;7.522;2023-07-13T15:52:39;21.20;91.40
58638;DHT22;54976;51.510;7.522;2023-07-13T15:55:40;21.40;90.20
58638;DHT22;54976;51.510;7.522;2023-07-13T15:58:40;20.90;91.80
58638;DHT22;54976;51.510;7.522;2023-07-13T16:01:41;20.30;92.90
58638;DHT22;54976;51.510;7.522;2023-07-13T16:04:42;20.20;93.90
58638;DHT22;54976;51.510;7.522;2023-07-13T16:07:47;20.10;93.60
58638;DHT22;54976;51.510;7.522;2023-07-13T16:10:48;20.00;94.10
58638;DHT22;54976;51.510;7.522;2023-07-13T16:13:50;20.00;95.10
58638;DHT22;54976;51.510;7.522;2023-07-13T16:16:55;19.90;94.10
58638;DHT22;54976;51.510;7.522;2023-07-13T16:19:55;19.60;95.80
58638;DHT22;54976;51.510;7.522;2023-07-13T16:22:56;19.40;95.90
58638;DHT22;54976;51.510;7.522;2023-07-13T16:25:57;19.30;97.20
58638;DHT22;54976;51.510;7.522;2023-07-13T16:28:58;19.40;97.60
58638;DHT22;54976;51.510;7.522;2023-07-13T16:32:10;19.50;97.10
58638;DHT22;54976;51.510;7.522;2023-07-13T16:35:11;19.40;96.70
58638;DHT22;54976;51.510;7.522;2023-07-13T16:38:22;19.00;95.90
58638;DHT22;54976;51.510;7.522;2023-07-13T16:41:24;18.80;97.60
58638;DHT22;54976;51.510;7.522;2023-07-13T16:44:25;18.70;98.40
58638;DHT22;54976;51.510;7.522;2023-07-13T16:47:28;18.70;98.70
58638;DHT22;54976;51.510;7.522;2023-07-13T16:50:31;18.50;98.70
58638;DHT22;54976;51.510;7.522;2023-07-13T16:53:33;18.50;98.60
58638;DHT22;54976;51.510;7.522;2023-07-13T16:56:33;18.30;98.70
58638;DHT22;54976;51.510;7.522;2023-07-13T16:59:35;18.20;99.90
58638;DHT22;54976;51.510;7.522;2023-07-13T17:02:37;17.90;99.90
58638;DHT22;54976;51.510;7.522;2023-07-13T17:05:41;17.80;99.90
58638;DHT22;54976;51.510;7.522;2023-07-13T17:08:45;17.70;99.90
58638;DHT22;54976;51.510;7.522;2023-07-13T17:11:46;17.60;99.90
58638;DHT22;54976;51.510;7.522;2023-07-13T17:14:46;17.60;99.90
58638;DHT22;54976;51.510;7.522;2023-07-13T17:17:48;17.80;99.90
58638;DHT22;54976;51.510;7.522;2023-07-13T17:20:49;17.90;99.90
58638;DHT22;54976;51.510;7.522;2023-07-13T17:23:50;18.00;99.90
58638;DHT22;54976;51.510;7.522;2023-07-13T17:26:52;18.10;99.90
58638;DHT22;54976;51.510;7.522;2023-07-13T17:29:55;18.20;99.90
58638;DHT22;54976;51.510;7.522;2023-07-13T17:32:55;18.10;99.90
58638;DHT22;54976;51.510;7.522;2023-07-13T17:35:57;18.20;99.90
58638;DHT22;54976;51.510;7.522;2023-07-13T17:38:58;18.20;99.90
58638;DHT22;54976;51.510;7.522;2023-07-13T17:41:59;18.20;99.90
58638;DHT22;54976;51.510;7.522;2023-07-13T17:45:01;18.30;99.90
58638;DHT22;54976;51.510;7.522;2023-07-13T17:48:01;18.40;99.90
58638;DHT22;54976;51.510;7.522;2023-07-13T17:51:12;18.50;99.90
58638;DHT22;54976;51.510;7.522;2023-07-13T17:54:14;18.60;99.90
58638;DHT22;54976;51.510;7.522;2023-07-13T17:57:15;18.50;99.90
58638;DHT22;54976;51.510;7.522;2023-07-13T18:00:19;18.50;99.90
58638;DHT22;54976;51.510;7.522;2023-07-13T18:03:33;18.50;99.90
58638;DHT22;54976;51.510;7.522;2023-07-13T18:06:44;18.60;99.90
58638;DHT22;54976;51.510;7.522;2023-07-13T18:09:53;18.70;99.90
58638;DHT22;54976;51.510;7.522;2023-07-13T18:12:53;18.70;99.90
58638;DHT22;54976;51.510;7.522;2023-07-13T18:15:54;18.80;99.90
58638;DHT22;54976;51.510;7.522;2023-07-13T18:18:57;18.70;99.90
58638;DHT22;54976;51.510;7.522;2023-07-13T18:21:58;18.70;99.90
58638;DHT22;54976;51.510;7.522;2023-07-13T18:25:01;18.70;99.90
58638;DHT22;54976;51.510;7.522;2023-07-13T18:28:06;18.70;99.90
58638;DHT22;54976;51.510;7.522;2023-07-13T18:31:11;18.70;99.90
58638;DHT22;54976;51.510;7.522;2023-07-13T18:34:14;18.70;99.90
58638;DHT22;54976;51.510;7.522;2023-07-13T18:37:18;18.80;99.90
58638;DHT22;54976;51.510;7.522;2023-07-13T18:40:19;18.80;99.90
58638;DHT22;54976;51.510;7.522;2023-07-13T18:43:22;18.80;99.90
58638;DHT22;54976;51.510;7.522;2023-07-13T18:46:27;18.90;99.90
58638;DHT22;54976;51.510;7.522;2023-07-13T18:49:32;18.80;99.90
58638;DHT22;54976;51.510;7.522;2023-07-13T18:52:32;18.80;99.90
58638;DHT22;54976;51.510;7.522;2023-07-13T18:55:33;18.70;99.90
58638;DHT22;54976;51.510;7.522;2023-07-13T18:58:34;18.60;99.90
58638;DHT22;54976;51.510;7.522;2023-07-13T19:01:35;18.50;99.90
58638;DHT22;54976;51.510;7.522;2023-07-13T19:04:36;18.40;99.90
58638;DHT22;54976;51.510;7.522;2023-07-13T19:07:36;18.30;99.90
58638;DHT22;54976;51.510;7.522;2023-07-13T19:10:38;18.20;99.90
58638;DHT22;54976;51.510;7.522;2023-07-13T19:13:39;18.10;99.90
58638;DHT22;54976;51.510;7.522;2023-07-13T19:16:39;18.20;99.90
58638;DHT22;54976;51.510;7.522;2023-07-13T19:19:42;18.00;99.90
58638;DHT22;54976;51.510;7.522;2023-07-13T19:22:44;17.90;99.90
58638;DHT22;54976;51.510;7.522;2023-07-13T19:25:48;17.80;99.90
58638;DHT22;54976;51.510;7.522;2023-07-13T19:28:53;17.80;99.90
58638;DHT22;54976;51.510;7.522;2023-07-13T19:31:55;17.70;99.90
58638;DHT22;54976;51.510;7.522;2023-07-13T19:34:55;17.60;99.90
58638;DHT22;54976;51.510;7.522;2023-07-13T19:37:56;17.50;99.90
58638;DHT22;54976;51.510;7.522;2023-07-13T19:40:57;17.40;99.90
58638;DHT22;54976;51.510;7.522;2023-07-13T19:43:57;17.30;99.90
58638;DHT22;54976;51.510;7.522;2023-07-13T19:46:58;17.30;99.90